sensor_id;sensor_type;location;lat;lon;timestamp;P1;durP1;ratioP1;P2;durP2;ratioP2
81298;SDS011;70766;53.170;18.160;2024-02-21T00:02:23;23.80;;;5.60;;
81298;SDS011;70766;53.170;18.160;2024-02-21T00:04:51;27.60;;;6.60;;
81298;SDS011;70766;53.170;18.160;2024-02-21T00:07:19;22.60;;;6.50;;
81298;SDS011;70766;53.170;18.160;2024-02-21T00:09:47;27.50;;;6.30;;
81298;SDS011;70766;53.170;18.160;2024-02-21T00:12:16;23.60;;;6.80;;
81298;SDS011;70766;53.170;18.160;2024-02-21T00:14:44;25.40;;;7.00;;
81298;SDS011;70766;53.170;18.160;2024-02-21T00:17:12;25.30;;;6.80;;
81298;SDS011;70766;53.170;18.160;2024-02-21T00:19:40;25.30;;;7.40;;
81298;SDS011;70766;53.170;18.160;2024-02-21T00:22:08;27.20;;;7.00;;
81298;SDS011;70766;53.170;18.160;2024-02-21T00:24:36;22.20;;;7.40;;
81298;SDS011;70766;53.170;18.160;2024-02-21T00:27:04;23.20;;;6.70;;
81298;SDS011;70766;53.170;18.160;2024-02-21T00:29:32;24.40;;;7.50;;
81298;SDS011;70766;53.170;18.160;2024-02-21T00:32:02;25.10;;;6.70;;
81298;SDS011;70766;53.170;18.160;2024-02-21T00:34:30;24.10;;;6.60;;
81298;SDS011;70766;53.170;18.160;2024-02-21T00:36:58;21.10;;;6.10;;
81298;SDS011;70766;53.170;18.160;2024-02-21T00:39:26;24.90;;;6.90;;
81298;SDS011;70766;53.170;18.160;2024-02-21T00:41:54;25.00;;;6.90;;
81298;SDS011;70766;53.170;18.160;2024-02-21T00:44:23;21.60;;;6.90;;
81298;SDS011;70766;53.170;18.160;2024-02-21T00:46:51;26.70;;;7.60;;
81298;SDS011;70766;53.170;18.160;2024-02-21T00:49:20;23.20;;;7.80;;
81298;SDS011;70766;53.170;18.160;2024-02-21T00:51:48;26.00;;;6.70;;
81298;SDS011;70766;53.170;18.160;2024-02-21T00:54:16;25.20;;;6.90;;
81298;SDS011;70766;53.170;18.160;2024-02-21T00:56:44;26.20;;;7.80;;
81298;SDS011;70766;53.170;18.160;2024-02-21T00:59:12;23.10;;;6.70;;
81298;SDS011;70766;53.170;18.160;2024-02-21T01:01:40;22.10;;;6.80;;
81298;SDS011;70766;53.170;18.160;2024-02-21T01:04:11;23.20;;;7.40;;
81298;SDS011;70766;53.170;18.160;2024-02-21T01:06:40;30.20;;;7.10;;
81298;SDS011;70766;53.170;18.160;2024-02-21T01:09:11;27.00;;;7.30;;
81298;SDS011;70766;53.170;18.160;2024-02-21T01:11:39;18.40;;;6.80;;
81298;SDS011;70766;53.170;18.160;2024-02-21T01:14:07;20.10;;;6.50;;
81298;SDS011;70766;53.170;18.160;2024-02-21T01:16:35;24.80;;;6.90;;
81298;SDS011;70766;53.170;18.160;2024-02-21T01:19:03;28.00;;;7.80;;
81298;SDS011;70766;53.170;18.160;2024-02-21T01:21:31;17.90;;;6.90;;
81298;SDS011;70766;53.170;18.160;2024-02-21T01:23:59;24.00;;;7.50;;
81298;SDS011;70766;53.170;18.160;2024-02-21T01:26:27;32.10;;;7.10;;
81298;SDS011;70766;53.170;18.160;2024-02-21T01:28:55;22.20;;;7.00;;
81298;SDS011;70766;53.170;18.160;2024-02-21T01:31:24;25.10;;;8.30;;
81298;SDS011;70766;53.170;18.160;2024-02-21T01:33:55;37.30;;;8.80;;
81298;SDS011;70766;53.170;18.160;2024-02-21T01:36:27;27.90;;;9.40;;
81298;SDS011;70766;53.170;18.160;2024-02-21T01:38:55;34.20;;;8.70;;
81298;SDS011;70766;53.170;18.160;2024-02-21T01:41:23;30.50;;;8.20;;
81298;SDS011;70766;53.170;18.160;2024-02-21T01:43:52;28.80;;;8.50;;
81298;SDS011;70766;53.170;18.160;2024-02-21T01:46:21;31.10;;;7.70;;
81298;SDS011;70766;53.170;18.160;2024-02-21T01:48:49;27.60;;;8.00;;
81298;SDS011;70766;53.170;18.160;2024-02-21T01:51:17;25.80;;;7.60;;
81298;SDS011;70766;53.170;18.160;2024-02-21T01:53:45;36.80;;;8.20;;
81298;SDS011;70766;53.170;18.160;2024-02-21T01:56:13;26.30;;;7.90;;
81298;SDS011;70766;53.170;18.160;2024-02-21T01:58:42;33.70;;;8.30;;
81298;SDS011;70766;53.170;18.160;2024-02-21T02:01:10;27.20;;;8.00;;
81298;SDS011;70766;53.170;18.160;2024-02-21T02:03:39;34.40;;;8.90;;
81298;SDS011;70766;53.170;18.160;2024-02-21T02:06:07;24.20;;;8.20;;
81298;SDS011;70766;53.170;18.160;2024-02-21T02:08:36;27.50;;;8.10;;
81298;SDS011;70766;53.170;18.160;2024-02-21T02:11:04;29.60;;;9.00;;
81298;SDS011;70766;53.170;18.160;2024-02-21T02:13:33;30.60;;;8.40;;
81298;SDS011;70766;53.170;18.160;2024-02-21T02:16:01;23.60;;;7.70;;
81298;SDS011;70766;53.170;18.160;2024-02-21T02:18:30;29.30;;;7.90;;
81298;SDS011;70766;53.170;18.160;2024-02-21T02:20:58;33.90;;;8.50;;
81298;SDS011;70766;53.170;18.160;2024-02-21T02:26:01;30.70;;;8.20;;
81298;SDS011;70766;53.170;18.160;2024-02-21T02:28:29;31.40;;;8.40;;
81298;SDS011;70766;53.170;18.160;2024-02-21T02:30:58;28.00;;;9.00;;
81298;SDS011;70766;53.170;18.160;2024-02-21T02:33:27;30.10;;;8.90;;
81298;SDS011;70766;53.170;18.160;2024-02-21T02:35:56;31.20;;;8.50;;
81298;SDS011;70766;53.170;18.160;2024-02-21T02:38:24;29.10;;;7.80;;
81298;SDS011;70766;53.170;18.160;2024-02-21T02:40:53;27.90;;;8.20;;
81298;SDS011;70766;53.170;18.160;2024-02-21T02:43:21;28.90;;;7.70;;
81298;SDS011;70766;53.170;18.160;2024-02-21T02:45:49;29.00;;;7.20;;
81298;SDS011;70766;53.170;18.160;2024-02-21T02:48:17;31.70;;;7.60;;
81298;SDS011;70766;53.170;18.160;2024-02-21T02:50:48;25.40;;;7.80;;
81298;SDS011;70766;53.170;18.160;2024-02-21T02:53:17;36.40;;;9.00;;
81298;SDS011;70766;53.170;18.160;2024-02-21T02:55:46;22.40;;;6.90;;
81298;SDS011;70766;53.170;18.160;2024-02-21T02:58:14;22.20;;;7.50;;
81298;SDS011;70766;53.170;18.160;2024-02-21T03:00:42;30.80;;;7.70;;
81298;SDS011;70766;53.170;18.160;2024-02-21T03:03:11;28.70;;;8.40;;
81298;SDS011;70766;53.170;18.160;2024-02-21T03:05:39;30.80;;;9.40;;
81298;SDS011;70766;53.170;18.160;2024-02-21T03:08:07;29.50;;;8.60;;
81298;SDS011;70766;53.170;18.160;2024-02-21T03:10:36;40.10;;;9.40;;
81298;SDS011;70766;53.170;18.160;2024-02-21T03:13:04;35.00;;;10.10;;
81298;SDS011;70766;53.170;18.160;2024-02-21T03:15:32;38.50;;;11.40;;
81298;SDS011;70766;53.170;18.160;2024-02-21T03:18:00;29.30;;;9.00;;
81298;SDS011;70766;53.170;18.160;2024-02-21T03:20:29;30.10;;;10.00;;
81298;SDS011;70766;53.170;18.160;2024-02-21T03:22:57;43.60;;;9.30;;
81298;SDS011;70766;53.170;18.160;2024-02-21T03:25:25;36.20;;;9.50;;
81298;SDS011;70766;53.170;18.160;2024-02-21T03:27:54;33.80;;;8.80;;
81298;SDS011;70766;53.170;18.160;2024-02-21T03:30:22;33.50;;;9.40;;
81298;SDS011;70766;53.170;18.160;2024-02-21T03:32:50;33.20;;;8.70;;
81298;SDS011;70766;53.170;18.160;2024-02-21T03:35:19;30.60;;;9.10;;
81298;SDS011;70766;53.170;18.160;2024-02-21T03:37:47;33.70;;;9.80;;
81298;SDS011;70766;53.170;18.160;2024-02-21T03:40:15;42.10;;;10.30;;
81298;SDS011;70766;53.170;18.160;2024-02-21T03:42:43;41.30;;;9.30;;
81298;SDS011;70766;53.170;18.160;2024-02-21T03:45:12;32.40;;;9.20;;
81298;SDS011;70766;53.170;18.160;2024-02-21T03:47:40;34.30;;;9.10;;
81298;SDS011;70766;53.170;18.160;2024-02-21T03:50:08;30.00;;;9.10;;
81298;SDS011;70766;53.170;18.160;2024-02-21T03:52:37;29.50;;;8.60;;
81298;SDS011;70766;53.170;18.160;2024-02-21T03:55:06;38.80;;;9.80;;
81298;SDS011;70766;53.170;18.160;2024-02-21T03:57:35;35.90;;;9.40;;
81298;SDS011;70766;53.170;18.160;2024-02-21T04:00:04;35.60;;;9.10;;
81298;SDS011;70766;53.170;18.160;2024-02-21T04:02:34;33.50;;;8.60;;
81298;SDS011;70766;53.170;18.160;2024-02-21T04:05:02;34.20;;;8.90;;
81298;SDS011;70766;53.170;18.160;2024-02-21T04:07:31;33.60;;;8.90;;
81298;SDS011;70766;53.170;18.160;2024-02-21T04:09:59;32.50;;;8.70;;
81298;SDS011;70766;53.170;18.160;2024-02-21T04:12:27;32.30;;;8.00;;
81298;SDS011;70766;53.170;18.160;2024-02-21T04:14:55;34.50;;;8.40;;
81298;SDS011;70766;53.170;18.160;2024-02-21T04:17:23;33.90;;;9.30;;
81298;SDS011;70766;53.170;18.160;2024-02-21T04:19:53;34.10;;;7.90;;
81298;SDS011;70766;53.170;18.160;2024-02-21T04:22:34;31.10;;;8.90;;
81298;SDS011;70766;53.170;18.160;2024-02-21T04:25:02;30.80;;;8.90;;
81298;SDS011;70766;53.170;18.160;2024-02-21T04:27:31;29.50;;;8.50;;
81298;SDS011;70766;53.170;18.160;2024-02-21T04:29:59;30.90;;;8.10;;
81298;SDS011;70766;53.170;18.160;2024-02-21T04:32:28;27.20;;;8.60;;
81298;SDS011;70766;53.170;18.160;2024-02-21T04:34:56;31.80;;;8.80;;
81298;SDS011;70766;53.170;18.160;2024-02-21T04:37:24;29.90;;;9.20;;
81298;SDS011;70766;53.170;18.160;2024-02-21T04:39:53;28.10;;;9.20;;
81298;SDS011;70766;53.170;18.160;2024-02-21T04:42:21;27.90;;;9.70;;
81298;SDS011;70766;53.170;18.160;2024-02-21T04:44:49;30.00;;;8.70;;
81298;SDS011;70766;53.170;18.160;2024-02-21T04:47:18;30.20;;;8.80;;
81298;SDS011;70766;53.170;18.160;2024-02-21T04:49:47;26.50;;;8.60;;
81298;SDS011;70766;53.170;18.160;2024-02-21T04:52:16;27.20;;;8.10;;
81298;SDS011;70766;53.170;18.160;2024-02-21T04:54:44;28.30;;;8.90;;
81298;SDS011;70766;53.170;18.160;2024-02-21T04:57:12;21.90;;;7.80;;
81298;SDS011;70766;53.170;18.160;2024-02-21T04:59:45;24.80;;;7.30;;
81298;SDS011;70766;53.170;18.160;2024-02-21T05:02:15;26.40;;;9.60;;
81298;SDS011;70766;53.170;18.160;2024-02-21T05:04:43;31.30;;;8.90;;
81298;SDS011;70766;53.170;18.160;2024-02-21T05:07:12;32.60;;;10.40;;
81298;SDS011;70766;53.170;18.160;2024-02-21T05:09:41;25.70;;;7.70;;
81298;SDS011;70766;53.170;18.160;2024-02-21T05:12:10;23.40;;;8.10;;
81298;SDS011;70766;53.170;18.160;2024-02-21T05:14:38;24.00;;;9.10;;
81298;SDS011;70766;53.170;18.160;2024-02-21T05:17:06;32.10;;;8.60;;
81298;SDS011;70766;53.170;18.160;2024-02-21T05:19:34;21.10;;;8.70;;
81298;SDS011;70766;53.170;18.160;2024-02-21T05:22:03;23.80;;;8.80;;
81298;SDS011;70766;53.170;18.160;2024-02-21T05:24:31;26.90;;;8.30;;
81298;SDS011;70766;53.170;18.160;2024-02-21T05:26:59;28.10;;;8.90;;
81298;SDS011;70766;53.170;18.160;2024-02-21T05:29:27;22.10;;;8.30;;
81298;SDS011;70766;53.170;18.160;2024-02-21T05:31:55;27.40;;;8.70;;
81298;SDS011;70766;53.170;18.160;2024-02-21T05:34:25;35.20;;;9.00;;
81298;SDS011;70766;53.170;18.160;2024-02-21T05:36:54;34.80;;;9.50;;
81298;SDS011;70766;53.170;18.160;2024-02-21T05:39:23;26.20;;;9.10;;
81298;SDS011;70766;53.170;18.160;2024-02-21T05:41:51;29.10;;;8.30;;
81298;SDS011;70766;53.170;18.160;2024-02-21T05:44:19;27.00;;;7.90;;
81298;SDS011;70766;53.170;18.160;2024-02-21T05:46:50;25.60;;;8.10;;
81298;SDS011;70766;53.170;18.160;2024-02-21T05:49:18;25.40;;;8.20;;
81298;SDS011;70766;53.170;18.160;2024-02-21T05:51:47;28.20;;;9.70;;
81298;SDS011;70766;53.170;18.160;2024-02-21T05:54:15;29.00;;;9.00;;
81298;SDS011;70766;53.170;18.160;2024-02-21T05:56:46;26.90;;;9.20;;
81298;SDS011;70766;53.170;18.160;2024-02-21T05:59:14;32.70;;;9.50;;
81298;SDS011;70766;53.170;18.160;2024-02-21T06:01:43;35.30;;;9.80;;
81298;SDS011;70766;53.170;18.160;2024-02-21T06:04:12;37.20;;;10.80;;
81298;SDS011;70766;53.170;18.160;2024-02-21T06:06:41;36.40;;;9.70;;
81298;SDS011;70766;53.170;18.160;2024-02-21T06:09:09;39.40;;;10.10;;
81298;SDS011;70766;53.170;18.160;2024-02-21T06:11:37;33.30;;;10.00;;
81298;SDS011;70766;53.170;18.160;2024-02-21T06:14:06;33.50;;;10.60;;
81298;SDS011;70766;53.170;18.160;2024-02-21T06:16:34;35.90;;;10.50;;
81298;SDS011;70766;53.170;18.160;2024-02-21T06:19:02;29.90;;;9.70;;
81298;SDS011;70766;53.170;18.160;2024-02-21T06:21:33;30.40;;;10.00;;
81298;SDS011;70766;53.170;18.160;2024-02-21T06:24:02;32.10;;;9.80;;
81298;SDS011;70766;53.170;18.160;2024-02-21T06:26:30;37.70;;;10.60;;
81298;SDS011;70766;53.170;18.160;2024-02-21T06:28:59;35.60;;;10.70;;
81298;SDS011;70766;53.170;18.160;2024-02-21T06:31:28;31.70;;;10.30;;
81298;SDS011;70766;53.170;18.160;2024-02-21T06:33:57;33.30;;;10.00;;
81298;SDS011;70766;53.170;18.160;2024-02-21T06:36:25;27.30;;;10.30;;
81298;SDS011;70766;53.170;18.160;2024-02-21T06:38:54;37.90;;;11.30;;
81298;SDS011;70766;53.170;18.160;2024-02-21T06:41:23;46.60;;;12.30;;
81298;SDS011;70766;53.170;18.160;2024-02-21T06:43:51;38.20;;;12.10;;
81298;SDS011;70766;53.170;18.160;2024-02-21T06:46:23;37.40;;;11.80;;
81298;SDS011;70766;53.170;18.160;2024-02-21T06:48:57;37.60;;;10.80;;
81298;SDS011;70766;53.170;18.160;2024-02-21T06:51:26;37.70;;;11.10;;
81298;SDS011;70766;53.170;18.160;2024-02-21T06:53:55;41.00;;;11.40;;
81298;SDS011;70766;53.170;18.160;2024-02-21T06:56:24;37.90;;;11.20;;
81298;SDS011;70766;53.170;18.160;2024-02-21T06:58:57;35.20;;;12.20;;
81298;SDS011;70766;53.170;18.160;2024-02-21T07:01:26;38.30;;;11.20;;
81298;SDS011;70766;53.170;18.160;2024-02-21T07:03:54;41.20;;;12.10;;
81298;SDS011;70766;53.170;18.160;2024-02-21T07:06:23;30.60;;;10.30;;
81298;SDS011;70766;53.170;18.160;2024-02-21T07:08:51;36.40;;;12.30;;
81298;SDS011;70766;53.170;18.160;2024-02-21T07:11:19;44.10;;;12.10;;
81298;SDS011;70766;53.170;18.160;2024-02-21T07:13:48;38.80;;;11.70;;
81298;SDS011;70766;53.170;18.160;2024-02-21T07:16:16;34.70;;;11.50;;
81298;SDS011;70766;53.170;18.160;2024-02-21T07:18:44;38.50;;;12.40;;
81298;SDS011;70766;53.170;18.160;2024-02-21T07:21:12;28.50;;;10.60;;
81298;SDS011;70766;53.170;18.160;2024-02-21T07:23:41;41.30;;;12.50;;
81298;SDS011;70766;53.170;18.160;2024-02-21T07:26:10;30.60;;;11.90;;
81298;SDS011;70766;53.170;18.160;2024-02-21T07:28:38;36.20;;;10.90;;
81298;SDS011;70766;53.170;18.160;2024-02-21T07:31:06;30.30;;;11.20;;
81298;SDS011;70766;53.170;18.160;2024-02-21T07:33:34;35.00;;;11.80;;
81298;SDS011;70766;53.170;18.160;2024-02-21T07:36:07;31.50;;;11.00;;
81298;SDS011;70766;53.170;18.160;2024-02-21T07:38:39;36.90;;;11.40;;
81298;SDS011;70766;53.170;18.160;2024-02-21T07:41:07;29.60;;;10.70;;
81298;SDS011;70766;53.170;18.160;2024-02-21T07:43:35;31.70;;;10.20;;
81298;SDS011;70766;53.170;18.160;2024-02-21T07:46:03;33.20;;;10.40;;
81298;SDS011;70766;53.170;18.160;2024-02-21T07:48:32;35.30;;;10.40;;
81298;SDS011;70766;53.170;18.160;2024-02-21T07:51:02;35.30;;;10.80;;
81298;SDS011;70766;53.170;18.160;2024-02-21T07:53:30;29.70;;;10.00;;
81298;SDS011;70766;53.170;18.160;2024-02-21T07:55:59;32.20;;;10.70;;
81298;SDS011;70766;53.170;18.160;2024-02-21T07:58:27;25.80;;;9.60;;
81298;SDS011;70766;53.170;18.160;2024-02-21T08:00:56;26.30;;;10.10;;
81298;SDS011;70766;53.170;18.160;2024-02-21T08:03:24;30.60;;;9.70;;
81298;SDS011;70766;53.170;18.160;2024-02-21T08:05:54;37.60;;;10.20;;
81298;SDS011;70766;53.170;18.160;2024-02-21T08:08:22;40.20;;;11.40;;
81298;SDS011;70766;53.170;18.160;2024-02-21T08:10:50;34.00;;;11.00;;
81298;SDS011;70766;53.170;18.160;2024-02-21T08:13:19;29.30;;;10.50;;
81298;SDS011;70766;53.170;18.160;2024-02-21T08:15:47;28.70;;;8.80;;
81298;SDS011;70766;53.170;18.160;2024-02-21T08:18:15;25.20;;;9.10;;
81298;SDS011;70766;53.170;18.160;2024-02-21T08:20:43;24.50;;;9.40;;
81298;SDS011;70766;53.170;18.160;2024-02-21T08:23:12;31.80;;;10.10;;
81298;SDS011;70766;53.170;18.160;2024-02-21T08:25:40;24.40;;;10.00;;
81298;SDS011;70766;53.170;18.160;2024-02-21T08:28:08;25.90;;;8.90;;
81298;SDS011;70766;53.170;18.160;2024-02-21T08:30:36;28.70;;;10.70;;
81298;SDS011;70766;53.170;18.160;2024-02-21T08:33:04;25.20;;;9.10;;
81298;SDS011;70766;53.170;18.160;2024-02-21T08:35:33;26.00;;;9.90;;
81298;SDS011;70766;53.170;18.160;2024-02-21T08:38:01;24.50;;;8.80;;
81298;SDS011;70766;53.170;18.160;2024-02-21T08:40:29;26.80;;;9.90;;
81298;SDS011;70766;53.170;18.160;2024-02-21T08:42:58;27.60;;;9.30;;
81298;SDS011;70766;53.170;18.160;2024-02-21T08:45:26;24.10;;;8.60;;
81298;SDS011;70766;53.170;18.160;2024-02-21T08:47:54;27.80;;;10.10;;
81298;SDS011;70766;53.170;18.160;2024-02-21T08:50:22;26.60;;;9.30;;
81298;SDS011;70766;53.170;18.160;2024-02-21T08:52:56;24.00;;;7.60;;
81298;SDS011;70766;53.170;18.160;2024-02-21T08:55:26;26.10;;;9.20;;
81298;SDS011;70766;53.170;18.160;2024-02-21T08:57:54;17.90;;;8.70;;
81298;SDS011;70766;53.170;18.160;2024-02-21T09:00:22;26.00;;;9.60;;
81298;SDS011;70766;53.170;18.160;2024-02-21T09:02:55;21.20;;;7.60;;
81298;SDS011;70766;53.170;18.160;2024-02-21T09:05:25;19.50;;;7.40;;
81298;SDS011;70766;53.170;18.160;2024-02-21T09:07:54;26.90;;;8.80;;
81298;SDS011;70766;53.170;18.160;2024-02-21T09:10:22;18.30;;;8.20;;
81298;SDS011;70766;53.170;18.160;2024-02-21T09:12:51;29.90;;;9.80;;
81298;SDS011;70766;53.170;18.160;2024-02-21T09:15:19;23.70;;;8.40;;
81298;SDS011;70766;53.170;18.160;2024-02-21T09:17:48;20.40;;;7.60;;
81298;SDS011;70766;53.170;18.160;2024-02-21T09:20:16;23.80;;;8.70;;
81298;SDS011;70766;53.170;18.160;2024-02-21T09:22:45;28.60;;;9.30;;
81298;SDS011;70766;53.170;18.160;2024-02-21T09:25:13;21.90;;;8.10;;
81298;SDS011;70766;53.170;18.160;2024-02-21T09:27:41;19.60;;;7.80;;
81298;SDS011;70766;53.170;18.160;2024-02-21T09:30:11;25.20;;;9.20;;
81298;SDS011;70766;53.170;18.160;2024-02-21T09:32:40;25.50;;;9.00;;
81298;SDS011;70766;53.170;18.160;2024-02-21T09:35:08;24.00;;;8.90;;
81298;SDS011;70766;53.170;18.160;2024-02-21T09:37:38;26.30;;;9.50;;
81298;SDS011;70766;53.170;18.160;2024-02-21T09:40:07;24.20;;;9.40;;
81298;SDS011;70766;53.170;18.160;2024-02-21T09:42:42;21.10;;;7.30;;
81298;SDS011;70766;53.170;18.160;2024-02-21T09:50:23;18.40;;;7.80;;
81298;SDS011;70766;53.170;18.160;2024-02-21T09:52:53;26.00;;;7.80;;
81298;SDS011;70766;53.170;18.160;2024-02-21T09:55:22;19.50;;;7.90;;
81298;SDS011;70766;53.170;18.160;2024-02-21T09:57:53;30.00;;;9.40;;
81298;SDS011;70766;53.170;18.160;2024-02-21T10:00:22;26.40;;;9.10;;
81298;SDS011;70766;53.170;18.160;2024-02-21T10:02:50;19.60;;;7.90;;
81298;SDS011;70766;53.170;18.160;2024-02-21T10:05:19;13.80;;;7.50;;
81298;SDS011;70766;53.170;18.160;2024-02-21T10:07:48;18.80;;;8.30;;
81298;SDS011;70766;53.170;18.160;2024-02-21T10:10:20;21.50;;;8.20;;
81298;SDS011;70766;53.170;18.160;2024-02-21T10:12:50;19.30;;;7.10;;
81298;SDS011;70766;53.170;18.160;2024-02-21T10:15:22;21.50;;;8.30;;
81298;SDS011;70766;53.170;18.160;2024-02-21T10:17:59;20.50;;;7.70;;
81298;SDS011;70766;53.170;18.160;2024-02-21T10:20:28;21.10;;;7.90;;
81298;SDS011;70766;53.170;18.160;2024-02-21T10:23:04;20.60;;;8.20;;
81298;SDS011;70766;53.170;18.160;2024-02-21T10:25:36;20.10;;;8.20;;
81298;SDS011;70766;53.170;18.160;2024-02-21T10:28:14;25.20;;;8.80;;
81298;SDS011;70766;53.170;18.160;2024-02-21T10:30:51;17.00;;;7.60;;
81298;SDS011;70766;53.170;18.160;2024-02-21T10:33:22;13.80;;;6.80;;
81298;SDS011;70766;53.170;18.160;2024-02-21T10:35:53;20.90;;;8.10;;
81298;SDS011;70766;53.170;18.160;2024-02-21T10:38:22;22.80;;;7.80;;
81298;SDS011;70766;53.170;18.160;2024-02-21T10:40:50;22.40;;;9.00;;
81298;SDS011;70766;53.170;18.160;2024-02-21T10:43:21;19.60;;;8.40;;
81298;SDS011;70766;53.170;18.160;2024-02-21T10:45:49;17.50;;;8.40;;
81298;SDS011;70766;53.170;18.160;2024-02-21T10:48:22;22.60;;;9.00;;
81298;SDS011;70766;53.170;18.160;2024-02-21T10:51:02;14.60;;;7.80;;
81298;SDS011;70766;53.170;18.160;2024-02-21T10:56:30;21.70;;;9.40;;
81298;SDS011;70766;53.170;18.160;2024-02-21T10:59:05;20.10;;;9.40;;
81298;SDS011;70766;53.170;18.160;2024-02-21T11:01:34;21.10;;;9.50;;
81298;SDS011;70766;53.170;18.160;2024-02-21T11:04:06;21.40;;;9.80;;
81298;SDS011;70766;53.170;18.160;2024-02-21T11:06:36;15.20;;;6.60;;
81298;SDS011;70766;53.170;18.160;2024-02-21T11:09:09;20.90;;;9.40;;
81298;SDS011;70766;53.170;18.160;2024-02-21T11:11:40;14.40;;;6.80;;
81298;SDS011;70766;53.170;18.160;2024-02-21T11:16:48;20.10;;;8.40;;
81298;SDS011;70766;53.170;18.160;2024-02-21T11:19:20;18.80;;;8.00;;
81298;SDS011;70766;53.170;18.160;2024-02-21T11:21:49;22.90;;;9.50;;
81298;SDS011;70766;53.170;18.160;2024-02-21T11:24:25;17.90;;;8.60;;
81298;SDS011;70766;53.170;18.160;2024-02-21T11:27:14;17.30;;;7.10;;
81298;SDS011;70766;53.170;18.160;2024-02-21T11:29:54;18.70;;;8.30;;
81298;SDS011;70766;53.170;18.160;2024-02-21T11:32:25;20.00;;;8.80;;
81298;SDS011;70766;53.170;18.160;2024-02-21T11:34:59;19.80;;;9.30;;
81298;SDS011;70766;53.170;18.160;2024-02-21T11:37:36;19.60;;;7.90;;
81298;SDS011;70766;53.170;18.160;2024-02-21T11:40:09;17.50;;;8.10;;
81298;SDS011;70766;53.170;18.160;2024-02-21T11:42:39;17.30;;;8.60;;
81298;SDS011;70766;53.170;18.160;2024-02-21T11:45:08;20.80;;;9.00;;
81298;SDS011;70766;53.170;18.160;2024-02-21T11:47:37;13.50;;;6.80;;
81298;SDS011;70766;53.170;18.160;2024-02-21T11:50:10;15.70;;;8.00;;
81298;SDS011;70766;53.170;18.160;2024-02-21T11:52:41;18.30;;;8.20;;
81298;SDS011;70766;53.170;18.160;2024-02-21T11:55:09;16.70;;;8.80;;
81298;SDS011;70766;53.170;18.160;2024-02-21T11:57:37;17.70;;;7.60;;
81298;SDS011;70766;53.170;18.160;2024-02-21T12:00:15;20.40;;;9.20;;
81298;SDS011;70766;53.170;18.160;2024-02-21T12:02:45;18.50;;;8.00;;
81298;SDS011;70766;53.170;18.160;2024-02-21T12:05:14;16.90;;;8.60;;
81298;SDS011;70766;53.170;18.160;2024-02-21T12:07:43;21.60;;;7.80;;
81298;SDS011;70766;53.170;18.160;2024-02-21T12:10:13;17.80;;;8.20;;
81298;SDS011;70766;53.170;18.160;2024-02-21T12:12:41;15.70;;;7.70;;
81298;SDS011;70766;53.170;18.160;2024-02-21T12:15:10;15.80;;;8.60;;
81298;SDS011;70766;53.170;18.160;2024-02-21T12:17:39;19.50;;;8.70;;
81298;SDS011;70766;53.170;18.160;2024-02-21T12:20:08;14.60;;;6.60;;
81298;SDS011;70766;53.170;18.160;2024-02-21T12:22:38;18.90;;;8.30;;
81298;SDS011;70766;53.170;18.160;2024-02-21T12:25:16;18.20;;;8.00;;
81298;SDS011;70766;53.170;18.160;2024-02-21T12:27:47;15.30;;;7.70;;
81298;SDS011;70766;53.170;18.160;2024-02-21T12:30:17;16.20;;;7.90;;
81298;SDS011;70766;53.170;18.160;2024-02-21T12:32:45;20.10;;;8.70;;
81298;SDS011;70766;53.170;18.160;2024-02-21T12:35:14;15.50;;;7.60;;
81298;SDS011;70766;53.170;18.160;2024-02-21T12:37:43;14.80;;;6.90;;
81298;SDS011;70766;53.170;18.160;2024-02-21T12:40:11;18.00;;;8.50;;
81298;SDS011;70766;53.170;18.160;2024-02-21T12:42:42;17.60;;;8.30;;
81298;SDS011;70766;53.170;18.160;2024-02-21T12:45:11;18.70;;;8.20;;
81298;SDS011;70766;53.170;18.160;2024-02-21T12:47:40;15.60;;;7.70;;
81298;SDS011;70766;53.170;18.160;2024-02-21T12:50:08;16.70;;;7.50;;
81298;SDS011;70766;53.170;18.160;2024-02-21T12:52:37;14.50;;;6.80;;
81298;SDS011;70766;53.170;18.160;2024-02-21T12:55:06;17.40;;;7.90;;
81298;SDS011;70766;53.170;18.160;2024-02-21T12:57:34;13.30;;;6.60;;
81298;SDS011;70766;53.170;18.160;2024-02-21T13:00:03;17.10;;;7.70;;
81298;SDS011;70766;53.170;18.160;2024-02-21T13:02:31;17.40;;;8.40;;
81298;SDS011;70766;53.170;18.160;2024-02-21T13:04:59;16.40;;;7.20;;
81298;SDS011;70766;53.170;18.160;2024-02-21T13:07:29;18.60;;;8.60;;
81298;SDS011;70766;53.170;18.160;2024-02-21T13:10:00;19.80;;;8.30;;
81298;SDS011;70766;53.170;18.160;2024-02-21T13:12:28;17.00;;;7.80;;
81298;SDS011;70766;53.170;18.160;2024-02-21T13:14:58;19.00;;;8.50;;
81298;SDS011;70766;53.170;18.160;2024-02-21T13:17:26;17.10;;;8.10;;
81298;SDS011;70766;53.170;18.160;2024-02-21T13:19:58;19.60;;;8.80;;
81298;SDS011;70766;53.170;18.160;2024-02-21T13:22:27;20.70;;;8.80;;
81298;SDS011;70766;53.170;18.160;2024-02-21T13:24:55;19.90;;;9.10;;
81298;SDS011;70766;53.170;18.160;2024-02-21T13:27:25;22.90;;;9.60;;
81298;SDS011;70766;53.170;18.160;2024-02-21T13:29:53;24.80;;;9.70;;
81298;SDS011;70766;53.170;18.160;2024-02-21T13:32:22;18.90;;;8.20;;
81298;SDS011;70766;53.170;18.160;2024-02-21T13:34:52;19.60;;;9.70;;
81298;SDS011;70766;53.170;18.160;2024-02-21T13:37:20;19.10;;;8.70;;
81298;SDS011;70766;53.170;18.160;2024-02-21T13:39:49;19.70;;;8.70;;
81298;SDS011;70766;53.170;18.160;2024-02-21T13:42:18;21.60;;;9.60;;
81298;SDS011;70766;53.170;18.160;2024-02-21T13:44:47;22.80;;;10.10;;
81298;SDS011;70766;53.170;18.160;2024-02-21T13:47:15;20.70;;;9.30;;
81298;SDS011;70766;53.170;18.160;2024-02-21T13:49:44;17.20;;;8.60;;
81298;SDS011;70766;53.170;18.160;2024-02-21T13:52:15;20.40;;;8.50;;
81298;SDS011;70766;53.170;18.160;2024-02-21T13:54:45;22.70;;;9.60;;
81298;SDS011;70766;53.170;18.160;2024-02-21T13:57:13;20.30;;;8.80;;
81298;SDS011;70766;53.170;18.160;2024-02-21T13:59:42;27.70;;;10.10;;
81298;SDS011;70766;53.170;18.160;2024-02-21T14:02:10;19.20;;;7.70;;
81298;SDS011;70766;53.170;18.160;2024-02-21T14:04:38;24.40;;;10.00;;
81298;SDS011;70766;53.170;18.160;2024-02-21T14:07:06;22.90;;;9.80;;
81298;SDS011;70766;53.170;18.160;2024-02-21T14:09:35;26.30;;;10.40;;
81298;SDS011;70766;53.170;18.160;2024-02-21T14:12:04;31.50;;;10.70;;
81298;SDS011;70766;53.170;18.160;2024-02-21T14:14:36;27.00;;;12.50;;
81298;SDS011;70766;53.170;18.160;2024-02-21T14:17:07;23.50;;;11.20;;
81298;SDS011;70766;53.170;18.160;2024-02-21T14:19:36;34.30;;;13.60;;
81298;SDS011;70766;53.170;18.160;2024-02-21T14:22:05;29.70;;;12.00;;
81298;SDS011;70766;53.170;18.160;2024-02-21T14:24:33;26.90;;;12.10;;
81298;SDS011;70766;53.170;18.160;2024-02-21T14:27:02;25.00;;;10.70;;
81298;SDS011;70766;53.170;18.160;2024-02-21T14:29:31;30.00;;;10.80;;
81298;SDS011;70766;53.170;18.160;2024-02-21T14:31:59;25.10;;;10.00;;
81298;SDS011;70766;53.170;18.160;2024-02-21T14:34:27;24.20;;;10.40;;
81298;SDS011;70766;53.170;18.160;2024-02-21T14:36:56;23.90;;;10.00;;
81298;SDS011;70766;53.170;18.160;2024-02-21T14:39:24;23.30;;;10.10;;
81298;SDS011;70766;53.170;18.160;2024-02-21T14:41:53;25.50;;;11.20;;
81298;SDS011;70766;53.170;18.160;2024-02-21T14:44:21;25.10;;;11.30;;